Time;durP1;ratioP1;P1;durP2;ratioP2;P2;SDS_P1;SDS_P2;PMS_P1;PMS_P2;Temp;Humidity;BMP_temperature;BMP_pressure;BME280_temperature;BME280_humidity;BME280_pressure;Samples;Min_cycle;Max_cycle;Signal;HPM_P1;HPM_P2
2023/01/16 00:00:51;;;;;;;;;1.67;1.67;;;;;16.98;79.48;99294.34;5082401;27;45307;-76
2023/01/16 00:03:17;;;;;;;;;4.00;2.00;;;;;16.99;79.68;99268.31;5100246;27;45178;-76
2023/01/16 00:05:43;;;;;;;;;1.33;1.33;;;;;17.01;81.09;99275.06;5100590;27;45500;-76
2023/01/16 00:08:08;;;;;;;;;3.33;2.00;;;;;17.02;79.20;99274.00;5068850;27;45292;-76
2023/01/16 00:10:34;;;;;;;;;1.00;1.00;;;;;16.94;80.81;99250.28;5082123;27;45983;-76
2023/01/16 00:12:59;;;;;;;;;2.00;1.00;;;;;17.06;80.76;99235.91;5082132;27;45298;-75
2023/01/16 00:15:24;;;;;;;;;1.00;1.00;;;;;17.00;80.84;99217.06;5100270;27;45439;-75
2023/01/16 00:17:50;;;;;;;;;2.67;1.00;;;;;16.98;80.91;99210.34;5082292;27;48121;-77
2023/01/16 00:20:16;;;;;;;;;1.00;1.00;;;;;17.02;80.94;99198.84;5100486;27;45274;-76
2023/01/16 00:22:41;;;;;;;;;3.00;3.00;;;;;17.02;79.90;99201.53;5100750;27;45365;-76
2023/01/16 00:25:07;;;;;;;;;2.33;2.00;;;;;17.02;80.46;99188.13;5100144;27;45508;-76
2023/01/16 00:27:32;;;;;;;;;1.00;1.00;;;;;16.97;80.28;99163.13;5081897;27;46009;-77
2023/01/16 00:29:58;;;;;;;;;2.00;0.67;;;;;17.02;81.02;99152.41;5100244;27;45303;-76
2023/01/16 00:32:23;;;;;;;;;1.67;1.67;;;;;16.99;81.07;99131.44;5100187;27;45533;-76
2023/01/16 00:34:48;;;;;;;;;1.67;1.67;;;;;17.07;81.57;99116.78;5081885;27;46095;-76
2023/01/16 00:37:14;;;;;;;;;1.00;1.00;;;;;17.03;81.51;99108.44;5100141;27;45247;-77
2023/01/16 00:39:39;;;;;;;;;1.00;1.00;;;;;17.02;80.27;99093.38;5100210;27;45305;-77
2023/01/16 00:42:05;;;;;;;;;1.00;0.67;;;;;17.08;80.27;99078.13;5099980;27;45594;-77
2023/01/16 00:44:31;;;;;;;;;1.67;1.67;;;;;16.96;80.77;99063.00;5081426;27;46314;-77
2023/01/16 00:46:56;;;;;;;;;1.67;1.00;;;;;16.98;81.17;99060.91;5081404;27;47333;-76
2023/01/16 00:49:22;;;;;;;;;1.00;1.00;;;;;16.97;81.07;99032.41;5100002;27;45258;-76
2023/01/16 00:51:47;;;;;;;;;3.33;2.33;;;;;16.97;80.40;99023.59;5099927;27;45242;-77
2023/01/16 00:54:13;;;;;;;;;1.00;0.00;;;;;16.91;80.30;98993.22;5100027;27;45258;-76
2023/01/16 00:56:38;;;;;;;;;1.67;1.67;;;;;16.94;81.56;98995.38;5099679;27;46284;-76
2023/01/16 00:59:03;;;;;;;;;1.00;1.00;;;;;16.92;80.58;98968.81;5081651;27;45339;-76
2023/01/16 01:01:29;;;;;;;;;1.00;1.00;;;;;16.94;81.55;98959.72;5099977;27;45958;-76
2023/01/16 01:03:54;;;;;;;;;1.00;1.00;;;;;17.00;80.55;98937.19;5100085;27;45307;-76
2023/01/16 01:06:19;;;;;;;;;1.33;1.00;;;;;16.99;80.55;98927.50;5100041;27;46010;-76
2023/01/16 01:08:45;;;;;;;;;1.00;1.00;;;;;16.99;79.34;98919.47;5099764;27;45624;-76
2023/01/16 01:11:13;;;;;;;;;1.00;1.00;;;;;16.96;81.05;98896.66;5099954;27;45385;-75
2023/01/16 01:13:39;;;;;;;;;1.33;1.00;;;;;16.89;80.54;98875.44;5099551;27;45373;-76
2023/01/16 01:16:05;;;;;;;;;1.33;0.00;;;;;16.96;78.40;98860.97;5099458;27;45631;-76
2023/01/16 01:18:30;;;;;;;;;2.33;1.33;;;;;16.99;80.77;98869.31;5099683;27;45319;-77
2023/01/16 01:20:56;;;;;;;;;2.00;1.00;;;;;17.03;80.04;98842.75;5099755;27;45577;-78
2023/01/16 01:23:21;;;;;;;;;0.67;0.67;;;;;17.02;78.40;98841.94;5081069;27;45938;-76
2023/01/16 01:25:46;;;;;;;;;2.00;1.33;;;;;16.94;79.95;98831.69;5099392;27;46025;-77
2023/01/16 01:28:12;;;;;;;;;1.00;1.00;;;;;16.90;80.15;98826.06;5081180;27;45276;-77
2023/01/16 01:30:37;;;;;;;;;4.00;2.00;;;;;16.90;81.30;98801.09;5099517;27;45359;-76
2023/01/16 01:33:03;;;;;;;;;2.67;2.00;;;;;16.98;81.25;98797.13;5081185;27;46030;-77
2023/01/16 01:35:28;;;;;;;;;2.00;1.67;;;;;16.82;80.95;98767.56;5098992;27;45942;-77
2023/01/16 01:37:54;;;;;;;;;1.00;1.00;;;;;16.97;81.04;98768.69;5099453;27;45268;-76
2023/01/16 01:40:19;;;;;;;;;4.00;2.00;;;;;16.94;80.94;98737.78;5099367;27;45331;-77
2023/01/16 01:42:51;;;;;;;;;2.00;1.00;;;;;16.98;80.35;98728.16;5081055;27;47515;-77
2023/01/16 01:45:27;;;;;;;;;1.00;1.00;;;;;17.01;80.79;98722.28;5080762;27;47101;-77
2023/01/16 01:48:13;;;;;;;;;2.00;2.00;;;;;17.02;80.54;98699.72;5099341;27;45284;-77
2023/01/16 01:50:41;;;;;;;;;0.00;0.00;;;;;17.10;80.32;98684.19;5088634;27;45285;-76
2023/01/16 01:53:36;;;;;;;;;1.00;1.00;;;;;17.08;79.99;98654.94;5080354;27;45548;-77
2023/01/16 01:56:41;;;;;;;;;4.33;2.00;;;;;17.06;79.77;98642.84;5072187;27;47751;-76
2023/01/16 01:59:14;;;;;;;;;0.00;0.00;;;;;17.07;79.32;98617.63;5068964;27;45398;-77
2023/01/16 02:01:40;;;;;;;;;0.00;0.00;;;;;17.01;79.60;98600.72;5099471;27;45389;-76
2023/01/16 02:04:12;;;;;;;;;0.00;0.00;;;;;17.10;80.32;98587.56;5099104;27;45406;-77
2023/01/16 02:06:44;;;;;;;;;2.33;1.00;;;;;17.10;80.84;98588.38;5099242;27;45299;-76
2023/01/16 02:09:10;;;;;;;;;2.00;1.00;;;;;17.11;80.06;98559.66;5098640;27;45515;-76
2023/01/16 02:11:48;;;;;;;;;1.33;0.33;;;;;17.14;81.25;98545.69;5099088;27;45427;-76
2023/01/16 02:14:17;;;;;;;;;2.00;0.67;;;;;17.13;81.76;98538.72;5098727;27;45576;-76
2023/01/16 02:19:57;;;;;;;;;1.00;1.00;;;;;17.64;78.73;98493.97;5098736;27;45480;-78
2023/01/16 02:22:40;;;;;;;;;1.67;1.00;;;;;17.69;79.90;98477.81;5098639;27;45375;-77
2023/01/16 02:25:27;;;;;;;;;1.00;0.00;;;;;17.75;78.90;98459.81;5099468;27;45374;-77
2023/01/16 02:27:55;;;;;;;;;1.33;1.00;;;;;17.64;79.82;98445.63;5090262;27;45356;-77
2023/01/16 02:30:45;;;;;;;;;1.00;1.00;;;;;17.62;78.60;98429.81;5102052;27;45303;-77
2023/01/16 02:33:44;;;;;;;;;1.00;1.00;;;;;17.44;80.34;98409.75;5102444;27;45401;-78
2023/01/16 02:36:16;;;;;;;;;1.00;1.00;;;;;16.82;86.33;98399.28;5073904;27;46593;-76
2023/01/16 02:39:09;;;;;;;;;1.00;1.00;;;;;16.66;87.65;98397.44;5083180;27;48302;-76
2023/01/16 02:42:11;;;;;;;;;2.00;2.00;;;;;16.63;88.15;98386.44;5083649;27;45473;-76
2023/01/16 02:44:59;;;;;;;;;2.33;1.00;;;;;16.60;92.01;98365.53;5101800;27;45417;-76
2023/01/16 02:47:58;;;;;;;;;1.00;1.00;;;;;16.59;90.52;98361.25;5042248;27;46569;-76
2023/01/16 02:50:50;;;;;;;;;0.00;0.00;;;;;16.53;93.10;98329.09;5067135;27;46713;-76
2023/01/16 02:53:15;;;;;;;;;0.00;0.00;;;;;16.32;91.47;98320.31;5101676;27;45481;-75
2023/01/16 02:55:47;;;;;;;;;1.33;1.33;;;;;16.24;92.63;98289.50;5102136;27;45908;-78
2023/01/16 02:58:14;;;;;;;;;0.33;0.00;;;;;16.27;93.12;98296.19;5083293;27;45411;-76
2023/01/16 03:00:50;;;;;;;;;0.00;0.00;;;;;16.24;91.70;98291.38;5101860;27;45294;-76
2023/01/16 03:03:39;;;;;;;;;0.67;0.67;;;;;16.26;92.01;98286.56;5101499;27;45331;-76
2023/01/16 03:06:38;;;;;;;;;0.00;0.00;;;;;16.27;92.93;98264.84;5101974;27;45310;-76
2023/01/16 03:09:09;;;;;;;;;0.00;0.00;;;;;16.36;91.58;98238.28;5101345;27;45329;-75
2023/01/16 03:11:58;;;;;;;;;1.00;1.00;;;;;16.27;91.37;98205.88;5101420;27;46386;-76
2023/01/16 03:14:36;;;;;;;;;0.00;0.00;;;;;16.24;92.30;98238.59;5101297;27;45330;-77
2023/01/16 03:17:13;;;;;;;;;1.00;1.00;;;;;16.22;92.54;98202.44;5101757;27;45543;-76
2023/01/16 03:20:00;;;;;;;;;1.33;0.00;;;;;16.25;93.08;98191.16;5101553;27;45297;-76
2023/01/16 03:22:39;;;;;;;;;1.00;1.00;;;;;16.09;92.37;98193.91;5101124;27;45429;-76
2023/01/16 03:25:17;;;;;;;;;0.00;0.00;;;;;16.09;92.43;98179.69;5082946;27;46274;-76
2023/01/16 03:27:57;;;;;;;;;0.00;0.00;;;;;16.08;93.35;98180.78;5089139;27;45333;-76
2023/01/16 03:30:41;;;;;;;;;0.33;0.00;;;;;16.37;92.24;98174.78;5101159;27;45423;-75
2023/01/16 03:33:16;;;;;;;;;0.67;0.00;;;;;16.37;91.14;98154.09;5101104;27;45288;-76
2023/01/16 03:35:49;;;;;;;;;1.00;1.00;;;;;16.36;92.04;98157.06;5101129;27;45338;-76
2023/01/16 03:38:17;;;;;;;;;1.00;0.67;;;;;16.08;91.49;98140.59;5099994;27;45381;-77
2023/01/16 03:40:46;;;;;;;;;0.00;0.00;;;;;15.93;91.97;98123.47;5101327;27;45746;-75
2023/01/16 03:43:26;;;;;;;;;0.00;0.00;;;;;15.93;91.79;98136.06;5082407;27;46506;-76
2023/01/16 03:46:05;;;;;;;;;1.33;1.33;;;;;15.88;94.35;98120.81;5101141;27;45380;-76
2023/01/16 03:48:44;;;;;;;;;0.00;0.00;;;;;15.93;94.45;98152.13;5100982;27;45524;-76
2023/01/16 03:51:16;;;;;;;;;0.00;0.00;;;;;15.84;94.39;98130.47;5082322;27;45543;-76
2023/01/16 03:54:01;;;;;;;;;0.00;0.00;;;;;15.92;94.07;98119.19;5100787;27;45370;-76
2023/01/16 03:56:34;;;;;;;;;0.00;0.00;;;;;16.26;94.03;98121.19;5082318;27;46093;-76
2023/01/16 03:59:00;;;;;;;;;0.00;0.00;;;;;16.24;94.56;98112.66;5082401;27;45386;-77
2023/01/16 04:01:40;;;;;;;;;0.67;0.00;;;;;15.68;98.63;98121.69;5100437;27;45425;-76
2023/01/16 04:04:14;;;;;;;;;0.00;0.00;;;;;15.63;97.57;98101.88;5100709;27;46246;-76
2023/01/16 04:06:57;;;;;;;;;0.00;0.00;;;;;15.69;97.44;98109.91;5083920;27;45356;-75
2023/01/16 04:09:40;;;;;;;;;0.00;0.00;;;;;15.62;100.00;98096.78;5097110;27;45323;-76
2023/01/16 04:12:07;;;;;;;;;0.00;0.00;;;;;15.67;96.47;98107.50;5100552;27;45359;-75
2023/01/16 04:14:35;;;;;;;;;0.00;0.00;;;;;15.77;95.73;98101.28;5100140;27;45727;-77
2023/01/16 04:17:02;;;;;;;;;0.00;0.00;;;;;15.69;97.10;98085.81;5100522;27;45355;-76
2023/01/16 04:19:30;;;;;;;;;0.00;0.00;;;;;15.75;97.63;98096.22;5081991;27;45385;-76
2023/01/16 04:21:55;;;;;;;;;1.00;0.00;;;;;15.76;97.12;98081.75;5100372;27;45424;-76
2023/01/16 04:24:21;;;;;;;;;0.00;0.00;;;;;15.71;95.57;98078.31;5064869;27;47704;-76
2023/01/16 04:26:46;;;;;;;;;0.00;0.00;;;;;15.78;95.29;98054.72;5079561;27;45472;-77
2023/01/16 04:29:11;;;;;;;;;0.00;0.00;;;;;15.71;95.50;98046.97;5100406;27;45313;-75
2023/01/16 04:31:37;;;;;;;;;0.33;0.00;;;;;15.70;94.73;98034.66;5100228;27;45346;-75
2023/01/16 04:34:02;;;;;;;;;0.00;0.00;;;;;15.72;94.86;98040.56;5081568;27;47328;-77
2023/01/16 04:36:27;;;;;;;;;0.00;0.00;;;;;15.68;93.84;98017.28;5100466;27;45324;-77
2023/01/16 04:38:53;;;;;;;;;0.00;0.00;;;;;15.73;97.13;98006.53;5081918;27;45778;-76
2023/01/16 04:41:40;;;;;;;;;0.00;0.00;;;;;16.10;94.81;97970.44;5100112;27;46415;-76
2023/01/16 04:44:07;;;;;;;;;0.00;0.00;;;;;16.32;90.86;97958.50;5099682;27;45977;-76
2023/01/16 04:46:33;;;;;;;;;0.00;0.00;;;;;16.26;91.05;97954.28;5081521;27;45413;-76
2023/01/16 04:48:59;;;;;;;;;0.00;0.00;;;;;16.25;90.93;97953.47;5099790;27;45524;-76
2023/01/16 04:51:24;;;;;;;;;0.00;0.00;;;;;15.72;91.92;97925.44;5099987;27;45377;-77
2023/01/16 04:53:50;;;;;;;;;0.00;0.00;;;;;15.74;92.71;97943.88;5100154;27;45256;-77
2023/01/16 04:56:15;;;;;;;;;0.00;0.00;;;;;15.67;93.71;97928.13;5081791;27;45373;-76
2023/01/16 04:58:41;;;;;;;;;0.00;0.00;;;;;15.72;94.72;97936.13;5081739;27;45346;-76
2023/01/16 05:01:06;;;;;;;;;0.00;0.00;;;;;15.71;94.66;97912.31;5099858;27;45371;-76
2023/01/16 05:03:31;;;;;;;;;0.00;0.00;;;;;15.76;95.30;97910.41;5100013;27;45334;-76
2023/01/16 05:05:57;;;;;;;;;0.00;0.00;;;;;15.69;94.47;97875.09;5100363;27;45311;-76
2023/01/16 05:08:25;;;;;;;;;0.00;0.00;;;;;15.72;94.51;97866.53;5099851;27;45318;-76
2023/01/16 05:10:51;;;;;;;;;0.00;0.00;;;;;15.83;94.69;97877.94;5099690;27;45547;-76
2023/01/16 05:13:16;;;;;;;;;0.00;0.00;;;;;15.80;96.13;97856.28;5099564;27;46472;-76
2023/01/16 05:15:44;;;;;;;;;0.00;0.00;;;;;15.97;95.31;97853.22;5099683;27;45273;-76
2023/01/16 05:18:09;;;;;;;;;0.00;0.00;;;;;16.03;94.66;97841.41;5100195;27;45398;-76
2023/01/16 05:20:35;;;;;;;;;0.00;0.00;;;;;16.05;95.03;97823.16;5099287;27;45532;-76
2023/01/16 05:23:00;;;;;;;;;0.00;0.00;;;;;16.10;94.08;97815.06;5099646;27;46123;-77
2023/01/16 05:25:25;;;;;;;;;0.00;0.00;;;;;16.11;94.12;97807.84;5099764;27;45450;-78
2023/01/16 05:27:51;;;;;;;;;0.33;0.33;;;;;16.12;94.19;97791.50;5099792;27;45500;-77
2023/01/16 05:30:16;;;;;;;;;0.00;0.00;;;;;16.18;94.93;97794.91;5099760;27;45318;-76
2023/01/16 05:32:43;;;;;;;;;0.00;0.00;;;;;16.21;94.58;97783.63;5099574;27;45813;-76
2023/01/16 05:35:09;;;;;;;;;0.00;0.00;;;;;16.14;94.56;97772.44;5080970;27;45323;-76
2023/01/16 05:37:34;;;;;;;;;1.00;0.00;;;;;16.08;94.42;97771.72;5099523;27;45410;-76
2023/01/16 05:40:00;;;;;;;;;1.00;0.00;;;;;16.09;95.51;97759.09;5099249;27;45350;-77
2023/01/16 05:42:25;;;;;;;;;0.00;0.00;;;;;16.23;95.41;97765.41;5099478;27;46027;-75
2023/01/16 05:44:51;;;;;;;;;0.00;0.00;;;;;16.28;94.27;97770.69;5099165;27;45460;-76
2023/01/16 05:47:21;;;;;;;;;0.00;0.00;;;;;16.25;94.43;97765.88;5099675;27;45424;-76
2023/01/16 05:49:46;;;;;;;;;1.00;1.00;;;;;16.10;95.51;97747.31;5098918;27;45476;-76
2023/01/16 05:52:13;;;;;;;;;0.00;0.00;;;;;16.11;95.53;97739.00;5099204;27;45421;-76
2023/01/16 05:54:38;;;;;;;;;0.00;0.00;;;;;16.06;95.67;97724.84;5078113;27;45305;-77
2023/01/16 05:57:04;;;;;;;;;0.00;0.00;;;;;16.05;95.86;97720.56;5088300;27;45320;-76
2023/01/16 05:59:29;;;;;;;;;1.00;1.00;;;;;16.13;96.40;97720.75;5098893;27;45607;-76
2023/01/16 06:01:56;;;;;;;;;2.00;1.00;;;;;16.09;96.53;97695.63;5102715;27;45359;-75
2023/01/16 06:04:22;;;;;;;;;0.67;0.67;;;;;16.19;96.21;97721.47;5084240;27;45556;-75
2023/01/16 06:06:47;;;;;;;;;0.00;0.00;;;;;16.21;95.61;97715.84;5103407;27;45267;-76
2023/01/16 06:09:13;;;;;;;;;0.00;0.00;;;;;16.18;95.25;97713.72;5083904;27;46061;-77
2023/01/16 06:11:38;;;;;;;;;0.00;0.00;;;;;16.24;95.85;97709.91;5102787;27;46067;-77
2023/01/16 06:14:04;;;;;;;;;2.00;0.00;;;;;16.22;95.65;97679.94;5102406;27;45253;-77
2023/01/16 06:16:30;;;;;;;;;0.33;0.00;;;;;16.18;95.93;97700.31;5102723;27;45357;-76
2023/01/16 06:18:56;;;;;;;;;1.00;1.00;;;;;16.78;92.21;97661.50;5102273;27;45535;-76
2023/01/16 06:21:21;;;;;;;;;1.00;1.00;;;;;16.94;91.18;97672.78;5102582;27;45525;-77
2023/01/16 06:23:46;;;;;;;;;1.00;1.00;;;;;16.78;91.35;97664.97;5102184;27;45507;-76
2023/01/16 06:26:12;;;;;;;;;1.33;1.00;;;;;16.86;91.60;97666.22;5100354;27;45366;-76
2023/01/16 06:28:38;;;;;;;;;0.00;0.00;;;;;16.70;91.44;97654.91;5071353;27;45603;-76
2023/01/16 06:31:04;;;;;;;;;0.33;0.33;;;;;16.57;92.91;97656.44;5083895;27;48274;-76
2023/01/16 06:33:29;;;;;;;;;0.67;0.00;;;;;16.51;93.02;97639.63;5101995;27;45430;-76
2023/01/16 06:35:54;;;;;;;;;0.00;0.00;;;;;16.52;93.77;97643.88;5084144;27;45334;-76
2023/01/16 06:38:20;;;;;;;;;0.00;0.00;;;;;16.50;94.33;97643.41;5101902;27;45564;-75
2023/01/16 06:40:45;;;;;;;;;1.33;0.00;;;;;16.52;93.78;97624.31;5083771;27;47390;-75
2023/01/16 06:43:11;;;;;;;;;1.00;1.00;;;;;16.42;94.67;97614.56;5102036;27;45283;-75
2023/01/16 06:45:37;;;;;;;;;1.00;1.00;;;;;16.55;93.81;97622.97;5102057;27;45367;-75
2023/01/16 06:48:02;;;;;;;;;0.00;0.00;;;;;16.53;94.36;97621.34;5101767;27;45324;-75
2023/01/16 06:50:27;;;;;;;;;0.00;0.00;;;;;16.31;99.18;97623.81;5102140;27;46709;-75
2023/01/16 06:52:53;;;;;;;;;0.00;0.00;;;;;16.52;95.25;97619.75;5101639;27;45241;-74
2023/01/16 06:55:21;;;;;;;;;2.00;1.00;;;;;16.49;96.67;97619.56;5102268;27;45352;-74
2023/01/16 06:57:48;;;;;;;;;1.00;1.00;;;;;16.60;94.30;97610.28;5101567;27;45302;-74
2023/01/16 07:00:13;;;;;;;;;0.00;0.00;;;;;16.57;93.31;97593.97;5101975;27;46044;-75
2023/01/16 07:02:39;;;;;;;;;1.00;0.00;;;;;16.51;98.74;97612.81;5101871;27;45382;-75
2023/01/16 07:05:10;;;;;;;;;0.00;0.00;;;;;15.96;97.80;97600.69;5101869;27;45548;-75
2023/01/16 07:07:36;;;;;;;;;0.00;0.00;;;;;15.87;96.77;97583.63;5096347;27;46355;-74
2023/01/16 07:10:02;;;;;;;;;1.00;0.00;;;;;15.82;98.07;97578.31;5101575;27;45567;-75
2023/01/16 07:12:28;;;;;;;;;0.67;0.67;;;;;15.81;97.38;97558.81;5101029;27;45433;-75
2023/01/16 07:23:35;;;;;;;;;1.00;1.00;;;;;15.85;97.63;97521.53;5101219;27;45398;-74
2023/01/16 07:26:04;;;;;;;;;0.00;0.00;;;;;15.75;96.72;97498.38;5101067;27;45307;-74
2023/01/16 07:28:30;;;;;;;;;1.33;0.00;;;;;15.75;97.34;97503.72;5101243;27;45334;-74
2023/01/16 07:30:57;;;;;;;;;0.00;0.00;;;;;15.69;97.21;97505.66;5082657;27;47312;-74
2023/01/16 07:33:23;;;;;;;;;0.00;0.00;;;;;15.69;97.70;97491.47;5082399;27;45397;-75
2023/01/16 07:35:48;;;;;;;;;0.67;0.00;;;;;15.71;97.55;97492.00;5101713;27;45260;-75
2023/01/16 07:38:13;;;;;;;;;1.00;1.00;;;;;15.80;96.05;97486.78;5082584;27;47259;-75
2023/01/16 07:40:39;;;;;;;;;0.00;0.00;;;;;15.71;96.62;97478.63;5082865;27;46912;-73
2023/01/16 07:43:04;;;;;;;;;2.00;1.00;;;;;15.72;95.67;97472.16;5082550;27;45725;-75
2023/01/16 07:45:29;;;;;;;;;2.00;1.00;;;;;15.75;97.08;97469.69;5101306;27;45220;-74
2023/01/16 07:47:55;;;;;;;;;0.33;0.33;;;;;15.78;97.16;97471.03;5083083;27;45262;-74
2023/01/16 07:50:20;;;;;;;;;0.00;0.00;;;;;15.83;96.18;97459.44;5100947;27;45264;-74
2023/01/16 07:52:46;;;;;;;;;0.00;0.00;;;;;15.83;95.63;97462.13;5082380;27;45381;-75
2023/01/16 07:55:12;;;;;;;;;1.00;0.00;;;;;15.86;97.14;97443.59;5101214;27;45330;-74
2023/01/16 07:57:39;;;;;;;;;1.67;0.00;;;;;15.78;95.89;97433.53;5100867;27;45284;-76
2023/01/16 08:00:06;;;;;;;;;1.67;1.67;;;;;15.77;95.90;97431.94;5083388;27;46598;-76
2023/01/16 08:02:32;;;;;;;;;1.00;1.00;;;;;15.76;95.40;97425.00;5082415;27;46263;-75
2023/01/16 08:04:57;;;;;;;;;1.00;0.00;;;;;15.78;95.30;97422.84;5082749;27;45706;-74
2023/01/16 08:07:22;;;;;;;;;0.67;0.67;;;;;15.80;96.43;97409.16;5096868;27;45571;-75
2023/01/16 08:09:48;;;;;;;;;2.00;0.00;;;;;15.89;96.89;97418.91;5080462;27;46966;-75
2023/01/16 08:12:13;;;;;;;;;1.00;1.00;;;;;15.95;96.25;97418.84;5082544;27;45716;-75
2023/01/16 08:14:39;;;;;;;;;1.00;0.00;;;;;15.93;95.72;97396.91;5100634;27;45307;-75
2023/01/16 08:17:04;;;;;;;;;0.00;0.00;;;;;16.02;95.41;97387.16;5108601;27;45206;-75
2023/01/16 08:19:30;;;;;;;;;0.00;0.00;;;;;15.97;95.11;97384.53;5101338;27;45406;-75
2023/01/16 08:21:56;;;;;;;;;0.00;0.00;;;;;15.96;94.51;97373.06;5089387;27;45330;-75
2023/01/16 08:24:21;;;;;;;;;0.67;0.00;;;;;16.01;95.40;97370.28;5097350;27;45333;-75
2023/01/16 08:26:47;;;;;;;;;0.00;0.00;;;;;16.09;95.15;97365.34;5097940;27;45595;-74
2023/01/16 08:29:12;;;;;;;;;1.00;1.00;;;;;16.02;94.85;97361.16;5093781;27;45351;-76
2023/01/16 08:31:38;;;;;;;;;1.33;1.00;;;;;15.94;94.30;97358.31;5099671;27;45428;-76
2023/01/16 08:34:04;;;;;;;;;0.00;0.00;;;;;15.95;93.98;97349.22;5099486;27;45306;-74
2023/01/16 08:36:29;;;;;;;;;0.33;0.33;;;;;15.90;94.17;97336.69;5100259;27;45467;-74
2023/01/16 08:38:54;;;;;;;;;0.00;0.00;;;;;15.92;94.81;97329.16;5098831;27;45478;-76
2023/01/16 08:52:30;;;;;;;;;1.00;1.00;;;;;15.90;93.65;97291.97;5086116;27;45399;-76
2023/01/16 08:54:57;;;;;;;;;0.00;0.00;;;;;15.92;94.83;97283.63;5100047;27;45300;-76
2023/01/16 08:57:24;;;;;;;;;2.33;0.00;;;;;15.82;94.28;97289.16;5081550;27;46414;-75
2023/01/16 08:59:49;;;;;;;;;1.00;0.00;;;;;15.73;90.44;97295.19;5099558;27;46132;-77
2023/01/16 09:02:14;;;;;;;;;0.00;0.00;;;;;15.60;93.13;97306.66;5098521;27;45367;-75
2023/01/16 09:04:41;;;;;;;;;0.00;0.00;;;;;15.50;91.30;97320.97;5098899;27;45268;-76
2023/01/16 09:07:06;;;;;;;;;0.00;0.00;;;;;15.33;89.83;97326.84;5090578;27;45446;-76
2023/01/16 09:09:31;;;;;;;;;0.00;0.00;;;;;15.19;90.69;97306.16;5080306;27;47564;-75
2023/01/16 09:14:41;;;;;;;;;0.00;0.00;;;;;15.20;91.19;97331.03;5099249;27;45492;-75
2023/01/16 09:17:08;;;;;;;;;0.00;0.00;;;;;15.15;90.26;97321.22;5099711;27;45458;-76
2023/01/16 09:19:34;;;;;;;;;0.00;0.00;;;;;15.15;89.76;97319.31;5081302;27;47266;-76
2023/01/16 09:22:00;;;;;;;;;0.00;0.00;;;;;15.19;91.69;97324.91;5099800;27;45375;-76
2023/01/16 09:24:26;;;;;;;;;0.00;0.00;;;;;15.24;91.45;97324.81;5099380;27;45227;-76
2023/01/16 09:26:51;;;;;;;;;0.00;0.00;;;;;15.16;91.05;97325.47;5099735;27;45318;-75
2023/01/16 09:29:16;;;;;;;;;0.67;0.67;;;;;15.10;89.13;97322.06;5099357;27;45294;-75
2023/01/16 09:31:42;;;;;;;;;0.00;0.00;;;;;15.10;89.44;97335.44;5099612;27;45294;-76
2023/01/16 09:34:07;;;;;;;;;0.00;0.00;;;;;15.04;88.99;97325.09;5081974;27;45315;-77
2023/01/16 09:36:32;;;;;;;;;0.00;0.00;;;;;15.04;89.79;97331.25;5103093;27;45248;-76
2023/01/16 09:38:58;;;;;;;;;0.00;0.00;;;;;15.12;90.43;97353.88;5103184;27;45361;-76
2023/01/16 09:44:13;;;;;;;;;0.00;0.00;;;;;14.92;88.97;97349.56;5092405;27;45330;-76
2023/01/16 09:46:44;;;;;;;;;1.00;0.00;;;;;14.94;89.92;97364.25;5102632;27;45564;-77
2023/01/16 09:49:36;;;;;;;;;0.67;0.67;;;;;14.89;90.25;97375.81;5095326;27;47189;-75
2023/01/16 10:00:34;;;;;;;;;0.00;0.00;;;;;14.87;91.22;97404.69;5102773;27;45314;-76
2023/01/16 10:03:00;;;;;;;;;0.00;0.00;;;;;14.86;90.63;97421.03;5084097;27;45394;-76
2023/01/16 10:05:37;;;;;;;;;0.00;0.00;;;;;14.80;89.65;97433.66;5103007;27;45386;-76
2023/01/16 10:08:11;;;;;;;;;0.00;0.00;;;;;14.72;90.94;97431.53;5083975;27;46466;-76
2023/01/16 10:11:03;;;;;;;;;0.00;0.00;;;;;14.73;90.64;97460.66;5103289;27;46259;-76
2023/01/16 10:13:29;;;;;;;;;2.00;2.00;;;;;14.79;90.68;97466.81;5092151;27;45501;-76
2023/01/16 10:15:54;;;;;;;;;2.00;2.00;;;;;14.84;91.37;97473.97;5102672;27;45324;-75
2023/01/16 10:18:51;;;;;;;;;1.00;1.00;;;;;14.74;89.25;97474.84;5102708;27;45374;-76
2023/01/16 10:21:22;;;;;;;;;1.00;1.00;;;;;14.88;91.24;97496.41;5081417;27;48227;-75
2023/01/16 10:24:01;;;;;;;;;2.00;1.00;;;;;14.93;91.70;97488.31;5101968;27;45456;-76
2023/01/16 10:26:44;;;;;;;;;1.00;1.00;;;;;14.93;91.19;97507.03;5087634;27;45358;-76
2023/01/16 10:29:36;;;;;;;;;1.00;1.00;;;;;15.09;90.89;97513.00;5083783;27;46408;-76
2023/01/16 10:32:24;;;;;;;;;1.33;1.33;;;;;15.20;91.07;97512.94;5079951;27;48463;-76
2023/01/16 10:35:05;;;;;;;;;1.67;1.67;;;;;15.26;90.53;97527.81;5101064;27;45339;-76
2023/01/16 10:37:32;;;;;;;;;3.00;2.00;;;;;15.31;91.72;97535.00;5083844;27;45417;-76
2023/01/16 10:40:01;;;;;;;;;3.00;2.50;;;;;15.47;90.99;97552.50;5102032;27;45275;-76
2023/01/16 10:51:00;;;;;;;;;4.33;4.00;;;;;15.62;91.08;97572.94;5101902;27;45322;-76
2023/01/16 10:53:26;;;;;;;;;3.00;2.67;;;;;15.59;91.50;97578.06;5100249;27;46708;-77
2023/01/16 10:55:53;;;;;;;;;3.00;3.00;;;;;15.60;93.74;97585.00;5101739;27;45323;-76
2023/01/16 10:58:35;;;;;;;;;5.33;4.67;;;;;15.52;92.80;97594.47;5083770;27;45445;-76
2023/01/16 11:01:02;;;;;;;;;5.00;5.00;;;;;15.48;92.48;97590.75;5101752;27;45306;-75
2023/01/16 11:03:36;;;;;;;;;6.33;6.33;;;;;15.44;93.23;97605.78;5101535;27;46408;-75
2023/01/16 11:06:11;;;;;;;;;7.67;7.67;;;;;15.40;94.00;97613.56;5101470;27;45397;-76
2023/01/16 11:08:37;;;;;;;;;11.00;10.00;;;;;15.35;96.33;97630.47;5083059;27;45354;-76
2023/01/16 11:11:03;;;;;;;;;14.33;14.33;;;;;15.23;93.90;97628.19;5101365;27;45305;-76
2023/01/16 11:19:39;;;;;;;;;2.00;2.00;;;;;15.25;91.25;97665.34;5101472;27;45300;-76
2023/01/16 11:22:28;;;;;;;;;5.00;5.00;;;;;15.17;92.71;97680.13;5101505;27;45250;-76
2023/01/16 11:24:57;;;;;;;;;0.33;0.33;;;;;15.01;93.28;97679.44;5101076;27;45678;-75
2023/01/16 11:27:26;;;;;;;;;0.67;0.67;;;;;14.81;94.37;97688.41;5083107;27;45325;-76
2023/01/16 11:29:54;;;;;;;;;0.00;0.00;;;;;14.75;94.39;97712.47;5099783;27;45434;-75
2023/01/16 11:32:24;;;;;;;;;0.00;0.00;;;;;14.54;100.00;97721.69;5100834;27;45364;-76
2023/01/16 11:34:54;;;;;;;;;37.33;32.33;;;;;14.42;100.00;97735.34;5100933;27;46407;-75
2023/01/16 11:37:21;;;;;;;;;7.00;4.67;;;;;14.40;100.00;97754.31;5100879;27;45279;-76
2023/01/16 11:39:50;;;;;;;;;0.00;0.00;;;;;14.26;100.00;97752.22;5101052;27;45469;-76
2023/01/16 11:48:02;;;;;;;;;1.00;1.00;;;;;14.13;100.00;97776.84;5100631;27;45369;-76
2023/01/16 11:50:36;;;;;;;;;0.00;0.00;;;;;14.23;100.00;97787.50;5099734;27;45359;-76
2023/01/16 11:53:01;;;;;;;;;0.00;0.00;;;;;14.32;100.00;97819.00;5100315;27;45931;-76
2023/01/16 11:55:47;;;;;;;;;0.00;0.00;;;;;14.33;100.00;97801.88;5100721;27;46132;-75
2023/01/16 11:58:35;;;;;;;;;3.00;2.00;;;;;14.44;100.00;97790.09;5099471;27;45266;-75
2023/01/16 12:01:20;;;;;;;;;1.00;1.00;;;;;14.54;100.00;97809.84;5099353;27;45323;-76
2023/01/16 12:04:19;;;;;;;;;2.00;0.00;;;;;14.71;100.00;97829.03;5100807;27;45239;-76
2023/01/16 12:07:01;;;;;;;;;2.00;2.00;;;;;14.86;98.88;97846.91;5082221;27;47383;-76
2023/01/16 12:09:41;;;;;;;;;0.00;0.00;;;;;14.96;98.09;97840.72;5081952;27;46373;-75
2023/01/16 12:15:30;;;;;;;;;2.00;2.00;;;;;15.08;94.65;97853.78;5060840;27;45805;-75
2023/01/16 12:18:08;;;;;;;;;0.67;0.00;;;;;15.24;93.95;97867.84;5093126;27;45678;-77
2023/01/16 12:20:53;;;;;;;;;0.00;0.00;;;;;15.34;94.70;97874.25;5096482;27;45386;-77
2023/01/16 12:23:56;;;;;;;;;1.00;1.00;;;;;15.26;93.35;97897.81;5100138;27;45219;-76
2023/01/16 12:26:23;;;;;;;;;5.33;4.67;;;;;15.31;94.01;97878.28;5081674;27;46305;-76
2023/01/16 12:29:11;;;;;;;;;1.00;1.00;;;;;15.44;93.50;97905.50;5098690;27;47416;-76
2023/01/16 12:31:55;;;;;;;;;3.00;3.00;;;;;15.48;93.18;97907.34;5081659;27;46468;-76
2023/01/16 12:34:26;;;;;;;;;3.00;1.00;;;;;15.60;94.39;97917.72;5088586;27;45389;-77
2023/01/16 12:37:22;;;;;;;;;2.67;2.00;;;;;15.67;92.75;97920.09;5081920;27;47065;-76
2023/01/16 12:40:23;;;;;;;;;1.33;1.33;;;;;15.70;92.15;97949.00;5098573;27;47489;-76
2023/01/16 12:43:32;;;;;;;;;3.00;1.33;;;;;15.72;91.37;97933.47;5087749;27;45469;-77
2023/01/16 12:46:01;;;;;;;;;1.00;1.00;;;;;15.75;90.88;97930.19;5099016;27;45388;-76
2023/01/16 12:48:56;;;;;;;;;2.00;2.00;;;;;15.71;88.63;97960.50;5101860;27;45349;-76
2023/01/16 12:51:58;;;;;;;;;0.33;0.33;;;;;15.73;87.98;97967.19;5085952;27;45362;-77